sensor_id;sensor_type;location;lat;lon;timestamp;P1;durP1;ratioP1;P2;durP2;ratioP2
13605;SDS011;6874;52.084;5.090;2024-02-04T00:00:14;297.03;;;286.20;;
13605;SDS011;6874;52.084;5.090;2024-02-04T00:02:40;284.77;;;274.30;;
13605;SDS011;6874;52.084;5.090;2024-02-04T00:05:06;289.50;;;278.87;;
13605;SDS011;6874;52.084;5.090;2024-02-04T00:07:31;296.87;;;286.03;;
13605;SDS011;6874;52.084;5.090;2024-02-04T00:09:57;294.33;;;283.57;;
13605;SDS011;6874;52.084;5.090;2024-02-04T00:12:22;301.60;;;290.50;;
13605;SDS011;6874;52.084;5.090;2024-02-04T00:14:48;290.93;;;280.40;;
13605;SDS011;6874;52.084;5.090;2024-02-04T00:17:16;290.10;;;279.73;;
13605;SDS011;6874;52.084;5.090;2024-02-04T00:19:42;290.63;;;280.20;;
13605;SDS011;6874;52.084;5.090;2024-02-04T00:22:08;299.40;;;288.77;;
13605;SDS011;6874;52.084;5.090;2024-02-04T00:24:33;291.73;;;281.47;;
13605;SDS011;6874;52.084;5.090;2024-02-04T00:26:59;291.67;;;281.30;;
13605;SDS011;6874;52.084;5.090;2024-02-04T00:29:25;292.63;;;282.20;;
13605;SDS011;6874;52.084;5.090;2024-02-04T00:31:50;296.17;;;285.53;;
13605;SDS011;6874;52.084;5.090;2024-02-04T00:34:16;304.93;;;293.87;;
13605;SDS011;6874;52.084;5.090;2024-02-04T00:36:41;295.87;;;285.27;;
13605;SDS011;6874;52.084;5.090;2024-02-04T00:39:07;293.10;;;282.63;;
13605;SDS011;6874;52.084;5.090;2024-02-04T00:41:33;294.20;;;283.80;;
13605;SDS011;6874;52.084;5.090;2024-02-04T00:43:59;293.80;;;283.20;;
13605;SDS011;6874;52.084;5.090;2024-02-04T00:46:25;293.63;;;283.13;;
13605;SDS011;6874;52.084;5.090;2024-02-04T00:48:51;291.93;;;281.43;;
13605;SDS011;6874;52.084;5.090;2024-02-04T00:51:16;279.00;;;269.10;;
13605;SDS011;6874;52.084;5.090;2024-02-04T00:53:43;275.67;;;265.97;;
13605;SDS011;6874;52.084;5.090;2024-02-04T00:56:08;267.20;;;257.73;;
13605;SDS011;6874;52.084;5.090;2024-02-04T00:58:36;278.10;;;268.27;;
13605;SDS011;6874;52.084;5.090;2024-02-04T01:01:01;277.00;;;267.10;;
13605;SDS011;6874;52.084;5.090;2024-02-04T01:03:27;267.97;;;258.53;;
13605;SDS011;6874;52.084;5.090;2024-02-04T01:05:54;273.17;;;263.47;;
13605;SDS011;6874;52.084;5.090;2024-02-04T01:08:20;269.47;;;259.87;;
13605;SDS011;6874;52.084;5.090;2024-02-04T01:10:46;275.73;;;266.03;;
13605;SDS011;6874;52.084;5.090;2024-02-04T01:13:12;265.97;;;256.60;;
13605;SDS011;6874;52.084;5.090;2024-02-04T01:15:38;260.17;;;251.00;;
13605;SDS011;6874;52.084;5.090;2024-02-04T01:18:03;262.53;;;253.30;;
13605;SDS011;6874;52.084;5.090;2024-02-04T01:20:29;247.60;;;238.93;;
13605;SDS011;6874;52.084;5.090;2024-02-04T01:22:54;258.23;;;249.20;;
13605;SDS011;6874;52.084;5.090;2024-02-04T01:25:20;252.03;;;243.20;;
13605;SDS011;6874;52.084;5.090;2024-02-04T01:27:45;269.07;;;259.53;;
13605;SDS011;6874;52.084;5.090;2024-02-04T01:30:11;272.70;;;262.93;;
13605;SDS011;6874;52.084;5.090;2024-02-04T01:32:37;286.70;;;276.40;;
13605;SDS011;6874;52.084;5.090;2024-02-04T01:35:02;281.67;;;271.50;;
13605;SDS011;6874;52.084;5.090;2024-02-04T01:37:28;290.50;;;279.90;;
13605;SDS011;6874;52.084;5.090;2024-02-04T01:39:53;294.03;;;283.13;;
13605;SDS011;6874;52.084;5.090;2024-02-04T01:42:19;298.50;;;287.50;;
13605;SDS011;6874;52.084;5.090;2024-02-04T01:44:45;305.67;;;294.40;;
13605;SDS011;6874;52.084;5.090;2024-02-04T01:47:10;307.60;;;296.10;;
13605;SDS011;6874;52.084;5.090;2024-02-04T01:49:36;283.70;;;273.03;;
13605;SDS011;6874;52.084;5.090;2024-02-04T01:52:02;299.20;;;288.17;;
13605;SDS011;6874;52.084;5.090;2024-02-04T01:54:29;292.80;;;282.03;;
13605;SDS011;6874;52.084;5.090;2024-02-04T01:56:56;295.27;;;284.40;;
13605;SDS011;6874;52.084;5.090;2024-02-04T01:59:24;296.07;;;285.17;;
13605;SDS011;6874;52.084;5.090;2024-02-04T02:01:55;287.83;;;277.23;;
13605;SDS011;6874;52.084;5.090;2024-02-04T02:04:22;293.20;;;282.27;;
13605;SDS011;6874;52.084;5.090;2024-02-04T02:06:48;281.73;;;271.37;;
13605;SDS011;6874;52.084;5.090;2024-02-04T02:09:14;291.43;;;280.57;;
13605;SDS011;6874;52.084;5.090;2024-02-04T02:11:40;294.83;;;283.97;;
13605;SDS011;6874;52.084;5.090;2024-02-04T02:14:11;293.33;;;282.57;;
13605;SDS011;6874;52.084;5.090;2024-02-04T02:16:41;288.13;;;277.53;;
13605;SDS011;6874;52.084;5.090;2024-02-04T02:21:57;274.03;;;264.07;;
13605;SDS011;6874;52.084;5.090;2024-02-04T02:24:38;290.30;;;279.70;;
13605;SDS011;6874;52.084;5.090;2024-02-04T02:27:04;288.80;;;278.30;;
13605;SDS011;6874;52.084;5.090;2024-02-04T02:29:31;288.97;;;278.33;;
13605;SDS011;6874;52.084;5.090;2024-02-04T02:31:57;286.30;;;275.73;;
13605;SDS011;6874;52.084;5.090;2024-02-04T02:34:24;290.20;;;279.40;;
13605;SDS011;6874;52.084;5.090;2024-02-04T02:36:52;291.07;;;280.37;;
13605;SDS011;6874;52.084;5.090;2024-02-04T02:39:40;278.70;;;268.60;;
13605;SDS011;6874;52.084;5.090;2024-02-04T02:42:12;285.20;;;274.90;;
13605;SDS011;6874;52.084;5.090;2024-02-04T02:44:39;288.50;;;278.03;;
13605;SDS011;6874;52.084;5.090;2024-02-04T02:47:05;289.77;;;279.07;;
13605;SDS011;6874;52.084;5.090;2024-02-04T02:49:32;282.47;;;271.93;;
13605;SDS011;6874;52.084;5.090;2024-02-04T02:51:58;283.33;;;272.97;;
13605;SDS011;6874;52.084;5.090;2024-02-04T02:54:23;266.07;;;256.30;;
13605;SDS011;6874;52.084;5.090;2024-02-04T02:56:49;263.83;;;254.17;;
13605;SDS011;6874;52.084;5.090;2024-02-04T02:59:15;270.10;;;260.30;;
13605;SDS011;6874;52.084;5.090;2024-02-04T03:01:41;257.20;;;247.83;;
13605;SDS011;6874;52.084;5.090;2024-02-04T03:04:06;251.20;;;242.00;;
13605;SDS011;6874;52.084;5.090;2024-02-04T03:06:32;226.70;;;218.47;;
13605;SDS011;6874;52.084;5.090;2024-02-04T03:08:59;231.40;;;222.93;;
13605;SDS011;6874;52.084;5.090;2024-02-04T03:11:24;213.97;;;206.27;;
13605;SDS011;6874;52.084;5.090;2024-02-04T03:13:50;217.10;;;209.33;;
13605;SDS011;6874;52.084;5.090;2024-02-04T03:16:15;203.70;;;196.43;;
13605;SDS011;6874;52.084;5.090;2024-02-04T03:18:41;191.60;;;184.70;;
13605;SDS011;6874;52.084;5.090;2024-02-04T03:21:17;179.90;;;173.50;;
13605;SDS011;6874;52.084;5.090;2024-02-04T03:23:43;178.90;;;172.50;;
13605;SDS011;6874;52.084;5.090;2024-02-04T03:26:09;165.27;;;159.47;;
13605;SDS011;6874;52.084;5.090;2024-02-04T03:28:35;149.33;;;143.97;;
13605;SDS011;6874;52.084;5.090;2024-02-04T03:31:02;148.57;;;143.27;;
13605;SDS011;6874;52.084;5.090;2024-02-04T03:33:27;148.20;;;143.00;;
13605;SDS011;6874;52.084;5.090;2024-02-04T03:35:53;148.47;;;143.17;;
13605;SDS011;6874;52.084;5.090;2024-02-04T03:38:19;152.23;;;146.83;;
13605;SDS011;6874;52.084;5.090;2024-02-04T03:40:44;143.63;;;138.53;;
13605;SDS011;6874;52.084;5.090;2024-02-04T03:43:10;144.77;;;139.70;;
13605;SDS011;6874;52.084;5.090;2024-02-04T03:45:36;132.67;;;127.97;;
13605;SDS011;6874;52.084;5.090;2024-02-04T03:48:01;126.23;;;121.73;;
13605;SDS011;6874;52.084;5.090;2024-02-04T03:50:27;120.90;;;116.57;;
13605;SDS011;6874;52.084;5.090;2024-02-04T03:52:53;123.27;;;118.87;;
13605;SDS011;6874;52.084;5.090;2024-02-04T03:55:19;123.63;;;119.23;;
13605;SDS011;6874;52.084;5.090;2024-02-04T03:57:44;115.90;;;111.80;;
13605;SDS011;6874;52.084;5.090;2024-02-04T04:00:10;128.67;;;124.10;;
13605;SDS011;6874;52.084;5.090;2024-02-04T04:02:36;129.63;;;125.07;;
13605;SDS011;6874;52.084;5.090;2024-02-04T04:05:02;124.43;;;120.03;;
13605;SDS011;6874;52.084;5.090;2024-02-04T04:07:27;124.07;;;119.70;;
13605;SDS011;6874;52.084;5.090;2024-02-04T04:09:53;122.43;;;118.13;;
13605;SDS011;6874;52.084;5.090;2024-02-04T04:12:18;120.50;;;116.23;;
13605;SDS011;6874;52.084;5.090;2024-02-04T04:14:44;115.00;;;110.93;;
13605;SDS011;6874;52.084;5.090;2024-02-04T04:17:10;115.53;;;111.43;;
13605;SDS011;6874;52.084;5.090;2024-02-04T04:19:35;114.87;;;110.80;;
13605;SDS011;6874;52.084;5.090;2024-02-04T04:22:02;110.83;;;106.93;;
13605;SDS011;6874;52.084;5.090;2024-02-04T04:24:28;110.70;;;106.83;;
13605;SDS011;6874;52.084;5.090;2024-02-04T04:26:54;115.87;;;111.77;;
13605;SDS011;6874;52.084;5.090;2024-02-04T04:29:20;114.67;;;110.60;;
13605;SDS011;6874;52.084;5.090;2024-02-04T04:31:45;113.83;;;109.87;;
13605;SDS011;6874;52.084;5.090;2024-02-04T04:34:11;118.33;;;114.20;;
13605;SDS011;6874;52.084;5.090;2024-02-04T04:36:37;113.50;;;109.47;;
13605;SDS011;6874;52.084;5.090;2024-02-04T04:39:02;130.93;;;126.33;;
13605;SDS011;6874;52.084;5.090;2024-02-04T04:41:28;129.53;;;124.93;;
13605;SDS011;6874;52.084;5.090;2024-02-04T04:43:53;135.37;;;130.63;;
13605;SDS011;6874;52.084;5.090;2024-02-04T04:46:19;128.53;;;123.97;;
13605;SDS011;6874;52.084;5.090;2024-02-04T04:48:45;132.13;;;127.47;;
13605;SDS011;6874;52.084;5.090;2024-02-04T04:51:11;139.87;;;134.97;;
13605;SDS011;6874;52.084;5.090;2024-02-04T04:53:37;139.07;;;134.17;;
13605;SDS011;6874;52.084;5.090;2024-02-04T04:56:03;138.53;;;133.63;;
13605;SDS011;6874;52.084;5.090;2024-02-04T04:58:29;131.97;;;127.37;;
13605;SDS011;6874;52.084;5.090;2024-02-04T05:00:55;140.20;;;135.27;;
13605;SDS011;6874;52.084;5.090;2024-02-04T05:03:21;143.83;;;138.77;;
13605;SDS011;6874;52.084;5.090;2024-02-04T05:05:46;137.57;;;132.73;;
13605;SDS011;6874;52.084;5.090;2024-02-04T05:08:15;141.40;;;136.43;;
13605;SDS011;6874;52.084;5.090;2024-02-04T05:10:40;147.57;;;142.30;;
13605;SDS011;6874;52.084;5.090;2024-02-04T05:13:06;143.70;;;138.60;;
13605;SDS011;6874;52.084;5.090;2024-02-04T05:15:32;146.53;;;141.33;;
13605;SDS011;6874;52.084;5.090;2024-02-04T05:17:59;147.57;;;142.37;;
13605;SDS011;6874;52.084;5.090;2024-02-04T05:20:25;146.47;;;141.27;;
13605;SDS011;6874;52.084;5.090;2024-02-04T05:22:51;143.47;;;138.47;;
13605;SDS011;6874;52.084;5.090;2024-02-04T05:25:16;148.13;;;142.93;;
13605;SDS011;6874;52.084;5.090;2024-02-04T05:27:42;148.77;;;143.47;;
13605;SDS011;6874;52.084;5.090;2024-02-04T05:30:07;158.13;;;152.53;;
13605;SDS011;6874;52.084;5.090;2024-02-04T05:32:33;153.73;;;148.30;;
13605;SDS011;6874;52.084;5.090;2024-02-04T05:34:59;153.10;;;147.70;;
13605;SDS011;6874;52.084;5.090;2024-02-04T05:37:24;150.70;;;145.40;;
13605;SDS011;6874;52.084;5.090;2024-02-04T05:39:50;156.43;;;150.87;;
13605;SDS011;6874;52.084;5.090;2024-02-04T05:42:15;149.00;;;143.73;;
13605;SDS011;6874;52.084;5.090;2024-02-04T05:44:41;149.83;;;144.50;;
13605;SDS011;6874;52.084;5.090;2024-02-04T05:47:06;158.70;;;153.07;;
13605;SDS011;6874;52.084;5.090;2024-02-04T05:49:32;146.90;;;141.70;;
13605;SDS011;6874;52.084;5.090;2024-02-04T05:51:57;163.37;;;157.63;;
13605;SDS011;6874;52.084;5.090;2024-02-04T05:54:23;276.42;;;265.55;;
13605;SDS011;6874;52.084;5.090;2024-02-04T05:56:48;84.30;;;81.47;;
13605;SDS011;6874;52.084;5.090;2024-02-04T05:59:14;95.30;;;92.10;;
13605;SDS011;6874;52.084;5.090;2024-02-04T06:01:41;121.57;;;117.37;;
13605;SDS011;6874;52.084;5.090;2024-02-04T06:04:07;126.10;;;121.70;;
13605;SDS011;6874;52.084;5.090;2024-02-04T06:06:33;127.57;;;122.97;;
13605;SDS011;6874;52.084;5.090;2024-02-04T06:08:59;126.67;;;122.17;;
13605;SDS011;6874;52.084;5.090;2024-02-04T06:11:24;119.07;;;114.83;;
13605;SDS011;6874;52.084;5.090;2024-02-04T06:13:50;115.13;;;111.03;;
13605;SDS011;6874;52.084;5.090;2024-02-04T06:16:15;112.17;;;108.17;;
13605;SDS011;6874;52.084;5.090;2024-02-04T06:18:41;103.43;;;99.83;;
13605;SDS011;6874;52.084;5.090;2024-02-04T06:21:07;97.50;;;94.13;;
13605;SDS011;6874;52.084;5.090;2024-02-04T06:23:33;93.10;;;89.90;;
13605;SDS011;6874;52.084;5.090;2024-02-04T06:25:59;86.13;;;83.20;;
13605;SDS011;6874;52.084;5.090;2024-02-04T06:28:26;85.20;;;82.30;;
13605;SDS011;6874;52.084;5.090;2024-02-04T06:30:55;92.07;;;88.93;;
13605;SDS011;6874;52.084;5.090;2024-02-04T06:33:29;94.73;;;91.50;;
13605;SDS011;6874;52.084;5.090;2024-02-04T06:35:55;103.43;;;99.83;;
13605;SDS011;6874;52.084;5.090;2024-02-04T06:38:21;108.87;;;105.07;;
13605;SDS011;6874;52.084;5.090;2024-02-04T06:40:47;122.73;;;118.43;;
13605;SDS011;6874;52.084;5.090;2024-02-04T06:43:12;126.83;;;122.33;;
13605;SDS011;6874;52.084;5.090;2024-02-04T06:45:38;135.87;;;131.03;;
13605;SDS011;6874;52.084;5.090;2024-02-04T06:48:03;142.00;;;136.93;;
13605;SDS011;6874;52.084;5.090;2024-02-04T06:50:29;143.90;;;138.80;;
13605;SDS011;6874;52.084;5.090;2024-02-04T06:52:55;148.97;;;143.67;;
13605;SDS011;6874;52.084;5.090;2024-02-04T06:55:21;163.80;;;157.90;;
13605;SDS011;6874;52.084;5.090;2024-02-04T06:57:46;169.53;;;163.43;;
13605;SDS011;6874;52.084;5.090;2024-02-04T07:00:12;174.63;;;168.33;;
13605;SDS011;6874;52.084;5.090;2024-02-04T07:02:38;189.43;;;182.60;;
13605;SDS011;6874;52.084;5.090;2024-02-04T07:05:03;183.07;;;176.37;;
13605;SDS011;6874;52.084;5.090;2024-02-04T07:07:29;200.53;;;193.27;;
13605;SDS011;6874;52.084;5.090;2024-02-04T07:09:55;207.97;;;200.37;;
13605;SDS011;6874;52.084;5.090;2024-02-04T07:12:22;216.17;;;208.40;;
13605;SDS011;6874;52.084;5.090;2024-02-04T07:14:47;216.37;;;208.50;;
13605;SDS011;6874;52.084;5.090;2024-02-04T07:17:13;231.50;;;223.07;;
13605;SDS011;6874;52.084;5.090;2024-02-04T07:19:38;230.90;;;222.53;;
13605;SDS011;6874;52.084;5.090;2024-02-04T07:22:04;238.63;;;229.93;;
13605;SDS011;6874;52.084;5.090;2024-02-04T07:24:30;235.27;;;226.73;;
13605;SDS011;6874;52.084;5.090;2024-02-04T07:26:55;249.87;;;240.73;;
13605;SDS011;6874;52.084;5.090;2024-02-04T07:29:21;251.23;;;242.07;;
13605;SDS011;6874;52.084;5.090;2024-02-04T07:31:46;260.47;;;250.97;;
13605;SDS011;6874;52.084;5.090;2024-02-04T07:34:12;256.00;;;246.53;;
13605;SDS011;6874;52.084;5.090;2024-02-04T07:36:37;266.27;;;256.40;;
13605;SDS011;6874;52.084;5.090;2024-02-04T07:39:03;259.83;;;250.20;;
13605;SDS011;6874;52.084;5.090;2024-02-04T07:41:29;273.70;;;263.67;;
13605;SDS011;6874;52.084;5.090;2024-02-04T07:43:56;274.70;;;264.60;;
13605;SDS011;6874;52.084;5.090;2024-02-04T07:46:22;273.37;;;263.23;;
13605;SDS011;6874;52.084;5.090;2024-02-04T07:48:47;280.73;;;270.33;;
13605;SDS011;6874;52.084;5.090;2024-02-04T07:51:13;285.13;;;274.67;;
13605;SDS011;6874;52.084;5.090;2024-02-04T07:53:38;271.07;;;261.17;;
13605;SDS011;6874;52.084;5.090;2024-02-04T07:56:04;274.37;;;264.37;;
13605;SDS011;6874;52.084;5.090;2024-02-04T07:58:32;271.47;;;261.50;;
13605;SDS011;6874;52.084;5.090;2024-02-04T08:00:57;288.27;;;277.63;;
13605;SDS011;6874;52.084;5.090;2024-02-04T08:03:23;289.50;;;278.93;;
13605;SDS011;6874;52.084;5.090;2024-02-04T08:05:48;283.40;;;273.10;;
13605;SDS011;6874;52.084;5.090;2024-02-04T08:08:14;289.73;;;279.10;;
13605;SDS011;6874;52.084;5.090;2024-02-04T08:10:39;290.00;;;279.47;;
13605;SDS011;6874;52.084;5.090;2024-02-04T08:13:05;289.63;;;279.10;;
13605;SDS011;6874;52.084;5.090;2024-02-04T08:15:31;294.37;;;283.73;;
13605;SDS011;6874;52.084;5.090;2024-02-04T08:17:57;288.70;;;278.30;;
13605;SDS011;6874;52.084;5.090;2024-02-04T08:20:22;285.53;;;275.33;;
13605;SDS011;6874;52.084;5.090;2024-02-04T08:22:48;290.90;;;280.57;;
13605;SDS011;6874;52.084;5.090;2024-02-04T08:25:13;291.07;;;280.60;;
13605;SDS011;6874;52.084;5.090;2024-02-04T08:27:39;290.13;;;279.70;;
13605;SDS011;6874;52.084;5.090;2024-02-04T08:30:05;291.87;;;281.40;;
13605;SDS011;6874;52.084;5.090;2024-02-04T08:32:31;291.87;;;281.40;;
13605;SDS011;6874;52.084;5.090;2024-02-04T08:34:56;296.80;;;286.13;;
13605;SDS011;6874;52.084;5.090;2024-02-04T08:37:22;279.07;;;269.03;;
13605;SDS011;6874;52.084;5.090;2024-02-04T08:39:48;288.27;;;278.07;;
13605;SDS011;6874;52.084;5.090;2024-02-04T08:42:13;292.17;;;281.70;;
13605;SDS011;6874;52.084;5.090;2024-02-04T08:44:40;286.10;;;275.80;;
13605;SDS011;6874;52.084;5.090;2024-02-04T08:47:06;296.93;;;286.20;;
13605;SDS011;6874;52.084;5.090;2024-02-04T08:49:35;292.17;;;281.67;;
13605;SDS011;6874;52.084;5.090;2024-02-04T08:52:01;293.17;;;282.60;;
13605;SDS011;6874;52.084;5.090;2024-02-04T08:54:27;289.97;;;279.53;;
13605;SDS011;6874;52.084;5.090;2024-02-04T08:56:52;294.57;;;283.90;;
13605;SDS011;6874;52.084;5.090;2024-02-04T08:59:18;300.17;;;289.33;;
13605;SDS011;6874;52.084;5.090;2024-02-04T09:01:43;297.47;;;286.57;;
13605;SDS011;6874;52.084;5.090;2024-02-04T09:04:09;288.67;;;278.07;;
13605;SDS011;6874;52.084;5.090;2024-02-04T09:06:34;302.50;;;291.23;;
13605;SDS011;6874;52.084;5.090;2024-02-04T09:09:00;289.10;;;278.23;;
13605;SDS011;6874;52.084;5.090;2024-02-04T09:11:26;291.27;;;280.30;;
13605;SDS011;6874;52.084;5.090;2024-02-04T09:13:51;279.37;;;268.73;;
13605;SDS011;6874;52.084;5.090;2024-02-04T09:16:17;268.50;;;258.30;;
13605;SDS011;6874;52.084;5.090;2024-02-04T09:18:42;254.80;;;245.13;;
13605;SDS011;6874;52.084;5.090;2024-02-04T09:21:08;252.27;;;242.73;;
13605;SDS011;6874;52.084;5.090;2024-02-04T09:23:33;228.50;;;219.93;;
13605;SDS011;6874;52.084;5.090;2024-02-04T09:25:59;211.83;;;203.93;;
13605;SDS011;6874;52.084;5.090;2024-02-04T09:28:24;199.13;;;191.60;;
13605;SDS011;6874;52.084;5.090;2024-02-04T09:30:50;191.93;;;184.67;;
13605;SDS011;6874;52.084;5.090;2024-02-04T09:33:16;182.33;;;175.57;;
13605;SDS011;6874;52.084;5.090;2024-02-04T09:35:41;161.70;;;155.60;;
13605;SDS011;6874;52.084;5.090;2024-02-04T09:38:07;156.57;;;150.70;;
13605;SDS011;6874;52.084;5.090;2024-02-04T09:40:32;149.13;;;143.60;;
13605;SDS011;6874;52.084;5.090;2024-02-04T09:42:59;135.07;;;130.13;;
13605;SDS011;6874;52.084;5.090;2024-02-04T09:45:26;126.47;;;121.70;;
13605;SDS011;6874;52.084;5.090;2024-02-04T09:47:51;124.67;;;120.13;;
13605;SDS011;6874;52.084;5.090;2024-02-04T09:50:20;111.90;;;107.87;;
13605;SDS011;6874;52.084;5.090;2024-02-04T09:52:48;106.03;;;102.23;;
13605;SDS011;6874;52.084;5.090;2024-02-04T09:55:17;96.87;;;93.43;;
13605;SDS011;6874;52.084;5.090;2024-02-04T09:57:48;100.20;;;96.67;;
13605;SDS011;6874;52.084;5.090;2024-02-04T10:00:13;103.57;;;99.93;;
13605;SDS011;6874;52.084;5.090;2024-02-04T10:02:43;100.17;;;96.70;;
13605;SDS011;6874;52.084;5.090;2024-02-04T10:05:09;105.37;;;101.73;;
13605;SDS011;6874;52.084;5.090;2024-02-04T10:07:35;102.17;;;98.63;;
13605;SDS011;6874;52.084;5.090;2024-02-04T10:10:01;108.17;;;104.37;;
13605;SDS011;6874;52.084;5.090;2024-02-04T10:12:27;123.00;;;118.70;;
13605;SDS011;6874;52.084;5.090;2024-02-04T10:14:53;124.50;;;120.17;;
13605;SDS011;6874;52.084;5.090;2024-02-04T10:17:18;129.47;;;124.93;;
13605;SDS011;6874;52.084;5.090;2024-02-04T10:19:48;137.23;;;132.40;;
13605;SDS011;6874;52.084;5.090;2024-02-04T10:22:13;130.20;;;125.63;;
13605;SDS011;6874;52.084;5.090;2024-02-04T10:24:41;141.90;;;136.87;;
13605;SDS011;6874;52.084;5.090;2024-02-04T10:27:07;154.77;;;149.33;;
13605;SDS011;6874;52.084;5.090;2024-02-04T10:29:34;149.63;;;144.33;;
13605;SDS011;6874;52.084;5.090;2024-02-04T10:32:00;157.97;;;152.33;;
13605;SDS011;6874;52.084;5.090;2024-02-04T10:34:26;159.73;;;154.03;;
13605;SDS011;6874;52.084;5.090;2024-02-04T10:36:52;169.50;;;163.47;;
13605;SDS011;6874;52.084;5.090;2024-02-04T10:39:18;170.53;;;164.40;;
13605;SDS011;6874;52.084;5.090;2024-02-04T10:41:48;190.83;;;183.90;;
13605;SDS011;6874;52.084;5.090;2024-02-04T10:44:16;194.53;;;187.43;;
13605;SDS011;6874;52.084;5.090;2024-02-04T10:46:42;203.37;;;196.03;;
13605;SDS011;6874;52.084;5.090;2024-02-04T10:49:13;215.63;;;207.63;;
13605;SDS011;6874;52.084;5.090;2024-02-04T10:51:39;210.70;;;202.97;;
13605;SDS011;6874;52.084;5.090;2024-02-04T10:54:06;216.53;;;208.53;;
13605;SDS011;6874;52.084;5.090;2024-02-04T10:56:45;220.07;;;211.70;;
13605;SDS011;6874;52.084;5.090;2024-02-04T10:59:11;241.13;;;232.03;;
13605;SDS011;6874;52.084;5.090;2024-02-04T11:01:42;241.07;;;231.97;;
13605;SDS011;6874;52.084;5.090;2024-02-04T11:04:10;240.87;;;231.83;;
13605;SDS011;6874;52.084;5.090;2024-02-04T11:06:38;243.53;;;234.33;;
13605;SDS011;6874;52.084;5.090;2024-02-04T11:09:06;244.30;;;235.03;;
13605;SDS011;6874;52.084;5.090;2024-02-04T11:11:34;251.93;;;242.33;;
13605;SDS011;6874;52.084;5.090;2024-02-04T11:14:04;251.40;;;241.77;;
13605;SDS011;6874;52.084;5.090;2024-02-04T11:24:46;259.07;;;249.17;;
13605;SDS011;6874;52.084;5.090;2024-02-04T11:27:20;254.50;;;244.73;;
13605;SDS011;6874;52.084;5.090;2024-02-04T11:29:46;258.23;;;248.40;;
13605;SDS011;6874;52.084;5.090;2024-02-04T11:32:11;262.50;;;252.50;;
13605;SDS011;6874;52.084;5.090;2024-02-04T11:34:38;269.77;;;259.57;;
13605;SDS011;6874;52.084;5.090;2024-02-04T11:37:14;271.13;;;261.03;;
13605;SDS011;6874;52.084;5.090;2024-02-04T11:39:47;260.03;;;250.13;;
13605;SDS011;6874;52.084;5.090;2024-02-04T11:42:17;274.60;;;264.17;;
13605;SDS011;6874;52.084;5.090;2024-02-04T11:44:43;278.73;;;268.27;;
13605;SDS011;6874;52.084;5.090;2024-02-04T11:47:09;270.20;;;260.07;;
13605;SDS011;6874;52.084;5.090;2024-02-04T11:49:35;272.23;;;262.00;;
13605;SDS011;6874;52.084;5.090;2024-02-04T11:52:01;287.77;;;277.00;;
13605;SDS011;6874;52.084;5.090;2024-02-04T11:54:26;269.80;;;259.70;;
13605;SDS011;6874;52.084;5.090;2024-02-04T11:56:52;278.33;;;267.90;;
13605;SDS011;6874;52.084;5.090;2024-02-04T11:59:18;289.90;;;279.07;;
13605;SDS011;6874;52.084;5.090;2024-02-04T12:01:46;282.50;;;272.07;;
13605;SDS011;6874;52.084;5.090;2024-02-04T12:04:13;276.77;;;266.57;;
13605;SDS011;6874;52.084;5.090;2024-02-04T12:06:40;278.17;;;267.83;;
13605;SDS011;6874;52.084;5.090;2024-02-04T12:09:06;270.80;;;260.63;;
13605;SDS011;6874;52.084;5.090;2024-02-04T12:11:34;273.57;;;263.27;;
13605;SDS011;6874;52.084;5.090;2024-02-04T12:14:00;285.73;;;275.13;;
13605;SDS011;6874;52.084;5.090;2024-02-04T12:16:28;295.80;;;284.60;;
13605;SDS011;6874;52.084;5.090;2024-02-04T12:18:53;305.27;;;293.67;;
13605;SDS011;6874;52.084;5.090;2024-02-04T12:21:19;309.17;;;297.50;;
13605;SDS011;6874;52.084;5.090;2024-02-04T12:23:45;309.67;;;297.87;;
13605;SDS011;6874;52.084;5.090;2024-02-04T12:26:12;309.93;;;297.97;;
13605;SDS011;6874;52.084;5.090;2024-02-04T12:28:38;301.87;;;290.33;;
13605;SDS011;6874;52.084;5.090;2024-02-04T12:31:04;310.53;;;298.43;;
13605;SDS011;6874;52.084;5.090;2024-02-04T12:33:30;309.40;;;297.40;;
13605;SDS011;6874;52.084;5.090;2024-02-04T12:35:55;318.73;;;306.53;;
13605;SDS011;6874;52.084;5.090;2024-02-04T12:38:23;335.33;;;322.47;;
13605;SDS011;6874;52.084;5.090;2024-02-04T12:40:48;329.27;;;316.47;;
13605;SDS011;6874;52.084;5.090;2024-02-04T12:43:14;319.47;;;307.27;;
13605;SDS011;6874;52.084;5.090;2024-02-04T12:45:40;324.10;;;311.63;;
13605;SDS011;6874;52.084;5.090;2024-02-04T12:48:06;321.63;;;309.27;;
13605;SDS011;6874;52.084;5.090;2024-02-04T12:50:33;337.37;;;324.53;;
13605;SDS011;6874;52.084;5.090;2024-02-04T12:55:32;337.70;;;324.73;;
13605;SDS011;6874;52.084;5.090;2024-02-04T12:58:07;322.57;;;310.17;;
13605;SDS011;6874;52.084;5.090;2024-02-04T13:00:34;332.73;;;320.03;;
13605;SDS011;6874;52.084;5.090;2024-02-04T13:03:01;322.60;;;310.40;;
13605;SDS011;6874;52.084;5.090;2024-02-04T13:05:28;304.03;;;292.60;;
13605;SDS011;6874;52.084;5.090;2024-02-04T13:07:56;310.70;;;298.93;;
13605;SDS011;6874;52.084;5.090;2024-02-04T13:10:23;310.37;;;298.63;;
13605;SDS011;6874;52.084;5.090;2024-02-04T13:15:32;339.13;;;326.17;;
13605;SDS011;6874;52.084;5.090;2024-02-04T13:18:03;325.03;;;312.70;;
13605;SDS011;6874;52.084;5.090;2024-02-04T13:20:28;332.47;;;319.57;;
13605;SDS011;6874;52.084;5.090;2024-02-04T13:22:54;334.50;;;321.77;;
13605;SDS011;6874;52.084;5.090;2024-02-04T13:25:20;332.30;;;319.50;;
13605;SDS011;6874;52.084;5.090;2024-02-04T13:27:47;330.13;;;317.40;;
13605;SDS011;6874;52.084;5.090;2024-02-04T13:30:13;330.87;;;317.97;;
13605;SDS011;6874;52.084;5.090;2024-02-04T13:32:39;343.67;;;330.53;;
13605;SDS011;6874;52.084;5.090;2024-02-04T13:35:05;323.93;;;311.60;;
13605;SDS011;6874;52.084;5.090;2024-02-04T13:37:33;309.97;;;298.27;;
13605;SDS011;6874;52.084;5.090;2024-02-04T13:40:06;325.70;;;313.27;;
13605;SDS011;6874;52.084;5.090;2024-02-04T13:42:34;321.73;;;309.47;;
13605;SDS011;6874;52.084;5.090;2024-02-04T13:45:00;306.87;;;295.37;;
13605;SDS011;6874;52.084;5.090;2024-02-04T13:47:27;309.17;;;297.23;;
13605;SDS011;6874;52.084;5.090;2024-02-04T13:49:53;303.83;;;292.07;;
13605;SDS011;6874;52.084;5.090;2024-02-04T13:52:19;295.57;;;284.10;;
13605;SDS011;6874;52.084;5.090;2024-02-04T13:54:45;281.23;;;270.43;;
13605;SDS011;6874;52.084;5.090;2024-02-04T13:57:11;288.43;;;277.17;;
13605;SDS011;6874;52.084;5.090;2024-02-04T13:59:36;272.23;;;261.83;;
13605;SDS011;6874;52.084;5.090;2024-02-04T14:02:02;271.77;;;261.20;;
13605;SDS011;6874;52.084;5.090;2024-02-04T14:04:29;276.83;;;266.07;;
13605;SDS011;6874;52.084;5.090;2024-02-04T14:06:55;274.20;;;263.53;;
13605;SDS011;6874;52.084;5.090;2024-02-04T14:09:21;266.13;;;255.90;;
13605;SDS011;6874;52.084;5.090;2024-02-04T14:11:46;272.33;;;261.93;;
13605;SDS011;6874;52.084;5.090;2024-02-04T14:14:13;274.73;;;264.17;;
13605;SDS011;6874;52.084;5.090;2024-02-04T14:16:38;267.67;;;257.30;;
13605;SDS011;6874;52.084;5.090;2024-02-04T14:19:04;251.47;;;241.73;;